<?xml version='1.0' encoding='UTF-8'?><gpx version="1.1" creator="JPX - https://github.com/jenetics/jpx" xmlns="http://www.topografix.com/GPX/1/1"><trk><trkseg><trkpt lat="40.18529088136353" lon="8.97148954325523"><ele>157.0</ele><time>2026-04-04T08:47:10Z</time></trkpt><trkpt lat="40.18527799662734" lon="8.971389276230326"><ele>157.0</ele><time>2026-04-04T08:47:11Z</time></trkpt><trkpt lat="40.18526754482668" lon="8.971276327512667"><ele>157.0</ele><time>2026-04-04T08:47:12Z</time></trkpt><trkpt lat="40.18526029758958" lon="8.971165253777171"><ele>157.0</ele><time>2026-04-04T08:47:13Z</time></trkpt><trkpt lat="40.1852493813487" lon="8.971042384534218"><ele>157.0</ele><time>2026-04-04T08:47:14Z</time></trkpt><trkpt lat="40.18523176725325" lon="8.970939266367816"><ele>157.0</ele><time>2026-04-04T08:47:15Z</time></trkpt><trkpt lat="40.18520859467777" lon="8.970844247303129"><ele>156.5</ele><time>2026-04-04T08:47:16Z</time></trkpt><trkpt lat="40.185181738458965" lon="8.970751207046465"><ele>156.0</ele><time>2026-04-04T08:47:17Z</time></trkpt><trkpt lat="40.185165315254864" lon="8.97064220148649"><ele>155.5</ele><time>2026-04-04T08:47:18Z</time></trkpt><trkpt lat="40.185171744481536" lon="8.970543232165937"><ele>155.0</ele><time>2026-04-04T08:47:19Z</time></trkpt><trkpt lat="40.18520459874103" lon="8.970460297085973"><ele>154.5</ele><time>2026-04-04T08:47:20Z</time></trkpt><trkpt lat="40.18526072045966" lon="8.970381115925019"><ele>154.0</ele><time>2026-04-04T08:47:21Z</time></trkpt><trkpt lat="40.18531435964687" lon="8.970291432930846"><ele>154.0</ele><time>2026-04-04T08:47:22Z</time></trkpt><trkpt lat="40.18536778820147" lon="8.970185426623967"><ele>154.0</ele><time>2026-04-04T08:47:23Z</time></trkpt><trkpt lat="40.185437939601435" lon="8.970085008371816"><ele>154.0</ele><time>2026-04-04T08:47:24Z</time></trkpt><trkpt lat="40.18550836574719" lon="8.969981751580756"><ele>154.0</ele><time>2026-04-04T08:47:25Z</time></trkpt><trkpt lat="40.18557330839386" lon="8.969889907240944"><ele>154.0</ele><time>2026-04-04T08:47:26Z</time></trkpt><trkpt lat="40.185623706773605" lon="8.969820230404766"><ele>153.0</ele><time>2026-04-04T08:47:27Z</time></trkpt><trkpt lat="40.18568794534729" lon="8.969755411558857"><ele>152.0</ele><time>2026-04-04T08:47:28Z</time></trkpt><trkpt lat="40.18575078770312" lon="8.969704087054083"><ele>151.0</ele><time>2026-04-04T08:47:29Z</time></trkpt><trkpt lat="40.18582180423835" lon="8.969648543063235"><ele>150.0</ele><time>2026-04-04T08:47:30Z</time></trkpt><trkpt lat="40.18590621678209" lon="8.969581870775956"><ele>149.0</ele><time>2026-04-04T08:47:31Z</time></trkpt><trkpt lat="40.185974574379635" lon="8.969527592865228"><ele>148.0</ele><time>2026-04-04T08:47:32Z</time></trkpt><trkpt lat="40.18605537761082" lon="8.969462607713174"><ele>148.0</ele><time>2026-04-04T08:47:33Z</time></trkpt><trkpt lat="40.1861427629979" lon="8.969384940955173"><ele>148.0</ele><time>2026-04-04T08:47:34Z</time></trkpt><trkpt lat="40.186220549808695" lon="8.96931123104133"><ele>148.0</ele><time>2026-04-04T08:47:35Z</time></trkpt><trkpt lat="40.18630242491775" lon="8.969248368040015"><ele>148.0</ele><time>2026-04-04T08:47:36Z</time></trkpt><trkpt lat="40.18638232473256" lon="8.969180539705341"><ele>148.0</ele><time>2026-04-04T08:47:37Z</time></trkpt><trkpt lat="40.186464150950655" lon="8.96911753341861"><ele>147.33333333333334</ele><time>2026-04-04T08:47:38Z</time></trkpt><trkpt lat="40.18654348330841" lon="8.969057223913595"><ele>146.66666666666669</ele><time>2026-04-04T08:47:39Z</time></trkpt><trkpt lat="40.18661960114058" lon="8.969003353896865"><ele>146.0</ele><time>2026-04-04T08:47:40Z</time></trkpt><trkpt lat="40.18668816063379" lon="8.968951860121905"><ele>145.33333333333334</ele><time>2026-04-04T08:47:41Z</time></trkpt><trkpt lat="40.18674470779081" lon="8.968912834452132"><ele>144.66666666666666</ele><time>2026-04-04T08:47:42Z</time></trkpt><trkpt lat="40.18680124020261" lon="8.968875266562883"><ele>144.0</ele><time>2026-04-04T08:47:43Z</time></trkpt><trkpt lat="40.18688400877476" lon="8.968834398165958"><ele>144.0</ele><time>2026-04-04T08:47:45Z</time></trkpt><trkpt lat="40.18683497773496" lon="8.968655708054186"><ele>144.0</ele><time>2026-04-04T08:47:48Z</time></trkpt><trkpt lat="40.18672990228636" lon="8.96852610548597"><ele>144.0</ele><time>2026-04-04T08:47:50Z</time></trkpt><trkpt lat="40.18666575334701" lon="8.968435411523215"><ele>144.0</ele><time>2026-04-04T08:47:51Z</time></trkpt><trkpt lat="40.186608982317665" lon="8.968327581528753"><ele>143.6</ele><time>2026-04-04T08:47:52Z</time></trkpt><trkpt lat="40.18654411779298" lon="8.968200511139006"><ele>143.2</ele><time>2026-04-04T08:47:53Z</time></trkpt><trkpt lat="40.18647970973142" lon="8.968081510777596"><ele>142.79999999999998</ele><time>2026-04-04T08:47:54Z</time></trkpt><trkpt lat="40.18641904311165" lon="8.96798566947619"><ele>142.4</ele><time>2026-04-04T08:47:55Z</time></trkpt><trkpt lat="40.186354138404766" lon="8.967899850321071"><ele>142.0</ele><time>2026-04-04T08:47:56Z</time></trkpt><trkpt lat="40.18628036657704" lon="8.967821868516566"><ele>142.0</ele><time>2026-04-04T08:47:57Z</time></trkpt><trkpt lat="40.18619339129955" lon="8.96775153894999"><ele>142.0</ele><time>2026-04-04T08:47:58Z</time></trkpt><trkpt lat="40.186104810815095" lon="8.967688416943332"><ele>142.0</ele><time>2026-04-04T08:47:59Z</time></trkpt><trkpt lat="40.18602155719224" lon="8.967618381827386"><ele>142.0</ele><time>2026-04-04T08:48:00Z</time></trkpt><trkpt lat="40.18596969130406" lon="8.967522457601584"><ele>142.0</ele><time>2026-04-04T08:48:01Z</time></trkpt><trkpt lat="40.1859065990753" lon="8.967431830929044"><ele>142.0</ele><time>2026-04-04T08:48:02Z</time></trkpt><trkpt lat="40.18586277468616" lon="8.967351918243201"><ele>142.0</ele><time>2026-04-04T08:48:03Z</time></trkpt><trkpt lat="40.18583594134613" lon="8.967277201421716"><ele>142.0</ele><time>2026-04-04T08:48:04Z</time></trkpt><trkpt lat="40.18580394292152" lon="8.967179384419511"><ele>142.0</ele><time>2026-04-04T08:48:05Z</time></trkpt><trkpt lat="40.18576306834991" lon="8.967067472509902"><ele>142.0</ele><time>2026-04-04T08:48:06Z</time></trkpt><trkpt lat="40.185724285421" lon="8.966966793591286"><ele>142.0</ele><time>2026-04-04T08:48:07Z</time></trkpt><trkpt lat="40.185684400924444" lon="8.966869813216869"><ele>142.0</ele><time>2026-04-04T08:48:08Z</time></trkpt><trkpt lat="40.18561531705681" lon="8.966771941622087"><ele>142.0</ele><time>2026-04-04T08:48:09Z</time></trkpt><trkpt lat="40.185539369835965" lon="8.966656017339059"><ele>142.0</ele><time>2026-04-04T08:48:10Z</time></trkpt><trkpt lat="40.18545904276248" lon="8.966544434892377"><ele>142.0</ele><time>2026-04-04T08:48:11Z</time></trkpt><trkpt lat="40.18538279705677" lon="8.966464816512103"><ele>142.0</ele><time>2026-04-04T08:48:12Z</time></trkpt><trkpt lat="40.18529651344863" lon="8.966404367726692"><ele>142.0</ele><time>2026-04-04T08:48:13Z</time></trkpt><trkpt lat="40.185204422617815" lon="8.966364010485398"><ele>142.0</ele><time>2026-04-04T08:48:14Z</time></trkpt><trkpt lat="40.1851125705028" lon="8.966328995642268"><ele>142.0</ele><time>2026-04-04T08:48:15Z</time></trkpt><trkpt lat="40.18502098807682" lon="8.966294529379816"><ele>142.0</ele><time>2026-04-04T08:48:16Z</time></trkpt><trkpt lat="40.18493028506864" lon="8.96626647868519"><ele>142.0</ele><time>2026-04-04T08:48:17Z</time></trkpt><trkpt lat="40.18484408840129" lon="8.966213322546768"><ele>142.33333333333334</ele><time>2026-04-04T08:48:18Z</time></trkpt><trkpt lat="40.18476350670423" lon="8.966181687985717"><ele>142.66666666666669</ele><time>2026-04-04T08:48:19Z</time></trkpt><trkpt lat="40.18470236865188" lon="8.966134473934796"><ele>143.0</ele><time>2026-04-04T08:48:20Z</time></trkpt><trkpt lat="40.184628930216626" lon="8.966086867660579"><ele>143.33333333333334</ele><time>2026-04-04T08:48:21Z</time></trkpt><trkpt lat="40.184569110372834" lon="8.966044182534032"><ele>143.66666666666666</ele><time>2026-04-04T08:48:22Z</time></trkpt><trkpt lat="40.18450221787595" lon="8.965990893650707"><ele>144.0</ele><time>2026-04-04T08:48:23Z</time></trkpt><trkpt lat="40.18443395413909" lon="8.965931883691857"><ele>144.0</ele><time>2026-04-04T08:48:24Z</time></trkpt><trkpt lat="40.1843716038137" lon="8.965866901134229"><ele>144.0</ele><time>2026-04-04T08:48:25Z</time></trkpt><trkpt lat="40.18430124581578" lon="8.965783395348002"><ele>144.0</ele><time>2026-04-04T08:48:26Z</time></trkpt><trkpt lat="40.18423034157326" lon="8.965712330380917"><ele>144.0</ele><time>2026-04-04T08:48:27Z</time></trkpt><trkpt lat="40.18413887874751" lon="8.965667705717031"><ele>144.0</ele><time>2026-04-04T08:48:28Z</time></trkpt><trkpt lat="40.184072167002" lon="8.965628785675145"><ele>144.0</ele><time>2026-04-04T08:48:29Z</time></trkpt><trkpt lat="40.183965855348895" lon="8.965546022818847"><ele>143.66666666666666</ele><time>2026-04-04T08:48:31Z</time></trkpt><trkpt lat="40.183913446498195" lon="8.965486657563755"><ele>143.33333333333334</ele><time>2026-04-04T08:48:32Z</time></trkpt><trkpt lat="40.18384731796599" lon="8.965466954054778"><ele>143.0</ele><time>2026-04-04T08:48:33Z</time></trkpt><trkpt lat="40.18379919753084" lon="8.965388002368718"><ele>142.66666666666669</ele><time>2026-04-04T08:48:34Z</time></trkpt><trkpt lat="40.18373976810771" lon="8.96528021856886"><ele>142.33333333333334</ele><time>2026-04-04T08:48:35Z</time></trkpt><trkpt lat="40.18366337302748" lon="8.965148817309926"><ele>142.0</ele><time>2026-04-04T08:48:36Z</time></trkpt><trkpt lat="40.183614396517235" lon="8.965002577829893"><ele>142.0</ele><time>2026-04-04T08:48:37Z</time></trkpt><trkpt lat="40.18354105131405" lon="8.964869740026646"><ele>142.0</ele><time>2026-04-04T08:48:38Z</time></trkpt><trkpt lat="40.183467619209175" lon="8.964738895751784"><ele>142.0</ele><time>2026-04-04T08:48:39Z</time></trkpt><trkpt lat="40.18339094377116" lon="8.96460319508456"><ele>142.0</ele><time>2026-04-04T08:48:40Z</time></trkpt><trkpt lat="40.18330213059638" lon="8.964475635098472"><ele>142.0</ele><time>2026-04-04T08:48:41Z</time></trkpt><trkpt lat="40.18322249925626" lon="8.964333990071605"><ele>142.0</ele><time>2026-04-04T08:48:42Z</time></trkpt><trkpt lat="40.18314078608479" lon="8.964193201329179"><ele>142.0</ele><time>2026-04-04T08:48:43Z</time></trkpt><trkpt lat="40.18306469882015" lon="8.964061428180726"><ele>142.0</ele><time>2026-04-04T08:48:44Z</time></trkpt><trkpt lat="40.18299351274196" lon="8.963940159968658"><ele>141.6</ele><time>2026-04-04T08:48:45Z</time></trkpt><trkpt lat="40.182922870822416" lon="8.963819429505564"><ele>141.2</ele><time>2026-04-04T08:48:46Z</time></trkpt><trkpt lat="40.18286650207087" lon="8.96369182413192"><ele>140.8</ele><time>2026-04-04T08:48:47Z</time></trkpt><trkpt lat="40.182787276258296" lon="8.963597438774402"><ele>140.4</ele><time>2026-04-04T08:48:48Z</time></trkpt><trkpt lat="40.18272511208607" lon="8.963485345266772"><ele>140.0</ele><time>2026-04-04T08:48:49Z</time></trkpt><trkpt lat="40.18265678374246" lon="8.963361337315742"><ele>139.25</ele><time>2026-04-04T08:48:50Z</time></trkpt><trkpt lat="40.1825857161552" lon="8.963228968993397"><ele>138.5</ele><time>2026-04-04T08:48:51Z</time></trkpt><trkpt lat="40.18250866026567" lon="8.963104539950418"><ele>137.75</ele><time>2026-04-04T08:48:52Z</time></trkpt><trkpt lat="40.18243373072098" lon="8.962975269246598"><ele>137.0</ele><time>2026-04-04T08:48:53Z</time></trkpt><trkpt lat="40.18236381987869" lon="8.962841814662081"><ele>137.4</ele><time>2026-04-04T08:48:54Z</time></trkpt><trkpt lat="40.18229575458212" lon="8.962713058608873"><ele>137.79999999999998</ele><time>2026-04-04T08:48:55Z</time></trkpt><trkpt lat="40.182231283195286" lon="8.962599818463573"><ele>138.2</ele><time>2026-04-04T08:48:56Z</time></trkpt><trkpt lat="40.18217446759283" lon="8.962496017757397"><ele>138.6</ele><time>2026-04-04T08:48:57Z</time></trkpt><trkpt lat="40.18212003981308" lon="8.962393611145448"><ele>139.0</ele><time>2026-04-04T08:48:58Z</time></trkpt><trkpt lat="40.18206995621403" lon="8.962299338841532"><ele>139.0</ele><time>2026-04-04T08:48:59Z</time></trkpt><trkpt lat="40.182032389494246" lon="8.962209182551847"><ele>139.0</ele><time>2026-04-04T08:49:00Z</time></trkpt><trkpt lat="40.18200041802681" lon="8.962110034596831"><ele>139.0</ele><time>2026-04-04T08:49:01Z</time></trkpt><trkpt lat="40.18196774428486" lon="8.96199750093277"><ele>139.0</ele><time>2026-04-04T08:49:02Z</time></trkpt><trkpt lat="40.18193439622114" lon="8.961886826957974"><ele>139.0</ele><time>2026-04-04T08:49:03Z</time></trkpt><trkpt lat="40.18188869492099" lon="8.961781710574867"><ele>139.0</ele><time>2026-04-04T08:49:04Z</time></trkpt><trkpt lat="40.18183908403336" lon="8.961680244515128"><ele>138.66666666666669</ele><time>2026-04-04T08:49:05Z</time></trkpt><trkpt lat="40.18178604049259" lon="8.961579250585686"><ele>138.33333333333334</ele><time>2026-04-04T08:49:06Z</time></trkpt><trkpt lat="40.18173697883323" lon="8.961476397511275"><ele>138.0</ele><time>2026-04-04T08:49:07Z</time></trkpt><trkpt lat="40.181692868921196" lon="8.961388861608716"><ele>137.66666666666666</ele><time>2026-04-04T08:49:08Z</time></trkpt><trkpt lat="40.18164562841219" lon="8.961304908934954"><ele>137.33333333333331</ele><time>2026-04-04T08:49:09Z</time></trkpt><trkpt lat="40.181592792332225" lon="8.961237944574451"><ele>137.0</ele><time>2026-04-04T08:49:10Z</time></trkpt><trkpt lat="40.181531830321035" lon="8.961187330576873"><ele>136.83333333333331</ele><time>2026-04-04T08:49:11Z</time></trkpt><trkpt lat="40.18146981619837" lon="8.961150213489526"><ele>136.66666666666666</ele><time>2026-04-04T08:49:12Z</time></trkpt><trkpt lat="40.181397863133384" lon="8.961146910252676"><ele>136.5</ele><time>2026-04-04T08:49:13Z</time></trkpt><trkpt lat="40.18132845412616" lon="8.961143991239792"><ele>136.33333333333334</ele><time>2026-04-04T08:49:14Z</time></trkpt><trkpt lat="40.18125467674401" lon="8.96114711945149"><ele>136.16666666666669</ele><time>2026-04-04T08:49:15Z</time></trkpt><trkpt lat="40.18115946722381" lon="8.961149051324577"><ele>136.0</ele><time>2026-04-04T08:49:16Z</time></trkpt><trkpt lat="40.18108283596423" lon="8.961174532140966"><ele>136.0</ele><time>2026-04-04T08:49:17Z</time></trkpt><trkpt lat="40.18097911861121" lon="8.961237327471741"><ele>136.0</ele><time>2026-04-04T08:49:18Z</time></trkpt><trkpt lat="40.18088111971086" lon="8.961349575365057"><ele>136.0</ele><time>2026-04-04T08:49:20Z</time></trkpt><trkpt lat="40.1808180749" lon="8.96143167616721"><ele>136.0</ele><time>2026-04-04T08:49:21Z</time></trkpt><trkpt lat="40.18074508378306" lon="8.961494418910412"><ele>136.0</ele><time>2026-04-04T08:49:22Z</time></trkpt><trkpt lat="40.180666180983266" lon="8.96155577354138"><ele>136.0</ele><time>2026-04-04T08:49:23Z</time></trkpt><trkpt lat="40.18058321557313" lon="8.961622862307179"><ele>136.0</ele><time>2026-04-04T08:49:24Z</time></trkpt><trkpt lat="40.18050526497973" lon="8.961693358065856"><ele>136.0</ele><time>2026-04-04T08:49:25Z</time></trkpt><trkpt lat="40.18042934786921" lon="8.961760349684633"><ele>136.0</ele><time>2026-04-04T08:49:26Z</time></trkpt><trkpt lat="40.18036450232377" lon="8.961808513373692"><ele>136.0</ele><time>2026-04-04T08:49:27Z</time></trkpt><trkpt lat="40.18030698670783" lon="8.961849163586024"><ele>136.0</ele><time>2026-04-04T08:49:28Z</time></trkpt><trkpt lat="40.18026192614694" lon="8.96178615935443"><ele>136.0</ele><time>2026-04-04T08:49:29Z</time></trkpt><trkpt lat="40.18017386286428" lon="8.961660414487023"><ele>136.0</ele><time>2026-04-04T08:49:31Z</time></trkpt><trkpt lat="40.18008164239154" lon="8.961570421156077"><ele>136.0</ele><time>2026-04-04T08:49:32Z</time></trkpt><trkpt lat="40.1800001823082" lon="8.961503238196855"><ele>136.0</ele><time>2026-04-04T08:49:33Z</time></trkpt><trkpt lat="40.179904494691094" lon="8.961452010681073"><ele>136.0</ele><time>2026-04-04T08:49:34Z</time></trkpt><trkpt lat="40.17980603598718" lon="8.961390117848174"><ele>137.4</ele><time>2026-04-04T08:49:35Z</time></trkpt><trkpt lat="40.17972489225184" lon="8.961311896970644"><ele>138.8</ele><time>2026-04-04T08:49:36Z</time></trkpt><trkpt lat="40.17964312962459" lon="8.96127334253319"><ele>140.20000000000002</ele><time>2026-04-04T08:49:37Z</time></trkpt><trkpt lat="40.17958788218125" lon="8.961178623902214"><ele>141.6</ele><time>2026-04-04T08:49:38Z</time></trkpt><trkpt lat="40.17951491987947" lon="8.96109403565568"><ele>143.0</ele><time>2026-04-04T08:49:39Z</time></trkpt><trkpt lat="40.179463279378474" lon="8.960990248991688"><ele>143.0</ele><time>2026-04-04T08:49:40Z</time></trkpt><trkpt lat="40.17941767804873" lon="8.96089912662948"><ele>143.0</ele><time>2026-04-04T08:49:41Z</time></trkpt><trkpt lat="40.179403595139384" lon="8.960804631113183"><ele>143.0</ele><time>2026-04-04T08:49:42Z</time></trkpt><trkpt lat="40.17936241518419" lon="8.960707908825087"><ele>143.0</ele><time>2026-04-04T08:49:43Z</time></trkpt><trkpt lat="40.17933878219722" lon="8.96059944685449"><ele>143.0</ele><time>2026-04-04T08:49:44Z</time></trkpt><trkpt lat="40.179322441091955" lon="8.960477349691331"><ele>143.0</ele><time>2026-04-04T08:49:45Z</time></trkpt><trkpt lat="40.17929343730669" lon="8.960381784274718"><ele>143.33333333333331</ele><time>2026-04-04T08:49:46Z</time></trkpt><trkpt lat="40.17923726492843" lon="8.96030726871627"><ele>143.66666666666666</ele><time>2026-04-04T08:49:47Z</time></trkpt><trkpt lat="40.17918786932716" lon="8.960238113198114"><ele>144.0</ele><time>2026-04-04T08:49:48Z</time></trkpt><trkpt lat="40.179126752456824" lon="8.96017118709927"><ele>144.33333333333334</ele><time>2026-04-04T08:49:49Z</time></trkpt><trkpt lat="40.17906765520839" lon="8.960119469565962"><ele>144.66666666666669</ele><time>2026-04-04T08:49:50Z</time></trkpt><trkpt lat="40.17900565512549" lon="8.96007986412976"><ele>145.0</ele><time>2026-04-04T08:49:51Z</time></trkpt><trkpt lat="40.17891206839504" lon="8.960039654050643"><ele>143.6</ele><time>2026-04-04T08:49:52Z</time></trkpt><trkpt lat="40.17881285849886" lon="8.959981764151351"><ele>142.2</ele><time>2026-04-04T08:49:53Z</time></trkpt><trkpt lat="40.17873630514633" lon="8.959933580225186"><ele>140.8</ele><time>2026-04-04T08:49:54Z</time></trkpt><trkpt lat="40.178676109287025" lon="8.959855746880041"><ele>139.4</ele><time>2026-04-04T08:49:55Z</time></trkpt><trkpt lat="40.17861077640592" lon="8.959770471851632"><ele>138.0</ele><time>2026-04-04T08:49:56Z</time></trkpt><trkpt lat="40.17853800229021" lon="8.959693667015486"><ele>138.0</ele><time>2026-04-04T08:49:57Z</time></trkpt><trkpt lat="40.17846896634347" lon="8.959645100170352"><ele>138.0</ele><time>2026-04-04T08:49:58Z</time></trkpt><trkpt lat="40.1784080530622" lon="8.959590830285435"><ele>138.0</ele><time>2026-04-04T08:49:59Z</time></trkpt><trkpt lat="40.17831690132768" lon="8.95951892707771"><ele>138.0</ele><time>2026-04-04T08:50:01Z</time></trkpt><trkpt lat="40.17819525800148" lon="8.959661908299628"><ele>138.0</ele><time>2026-04-04T08:50:04Z</time></trkpt><trkpt lat="40.17817343710879" lon="8.959742253293053"><ele>138.4</ele><time>2026-04-04T08:50:05Z</time></trkpt><trkpt lat="40.178150681483544" lon="8.959840240460128"><ele>138.8</ele><time>2026-04-04T08:50:06Z</time></trkpt><trkpt lat="40.178117476107694" lon="8.95995751637552"><ele>139.2</ele><time>2026-04-04T08:50:07Z</time></trkpt><trkpt lat="40.17807857695339" lon="8.960096605130076"><ele>139.6</ele><time>2026-04-04T08:50:08Z</time></trkpt><trkpt lat="40.178035936316995" lon="8.960228826261323"><ele>140.0</ele><time>2026-04-04T08:50:09Z</time></trkpt><trkpt lat="40.177983489239644" lon="8.96035140734508"><ele>142.4</ele><time>2026-04-04T08:50:10Z</time></trkpt><trkpt lat="40.177909858480476" lon="8.960473258279219"><ele>144.8</ele><time>2026-04-04T08:50:11Z</time></trkpt><trkpt lat="40.17782607987111" lon="8.960596216641935"><ele>147.2</ele><time>2026-04-04T08:50:12Z</time></trkpt><trkpt lat="40.177764524585214" lon="8.96069948173117"><ele>149.6</ele><time>2026-04-04T08:50:13Z</time></trkpt><trkpt lat="40.177723231087356" lon="8.960793262384335"><ele>152.0</ele><time>2026-04-04T08:50:14Z</time></trkpt><trkpt lat="40.177696942704344" lon="8.960909517116527"><ele>154.0</ele><time>2026-04-04T08:50:15Z</time></trkpt><trkpt lat="40.177675263226455" lon="8.961026478395366"><ele>156.0</ele><time>2026-04-04T08:50:16Z</time></trkpt><trkpt lat="40.17767933585878" lon="8.961167429009524"><ele>158.0</ele><time>2026-04-04T08:50:18Z</time></trkpt><trkpt lat="40.177696556513936" lon="8.961277322857361"><ele>160.0</ele><time>2026-04-04T08:50:19Z</time></trkpt><trkpt lat="40.17772015214027" lon="8.961399857857216"><ele>162.0</ele><time>2026-04-04T08:50:20Z</time></trkpt><trkpt lat="40.17774305767913" lon="8.96154762007602"><ele>163.2</ele><time>2026-04-04T08:50:21Z</time></trkpt><trkpt lat="40.177769168771654" lon="8.961708209461865"><ele>164.39999999999998</ele><time>2026-04-04T08:50:22Z</time></trkpt><trkpt lat="40.177781378928344" lon="8.961841300976236"><ele>165.60000000000002</ele><time>2026-04-04T08:50:23Z</time></trkpt><trkpt lat="40.177781116728355" lon="8.961950840322551"><ele>166.8</ele><time>2026-04-04T08:50:24Z</time></trkpt><trkpt lat="40.17778676068968" lon="8.962051438339778"><ele>168.0</ele><time>2026-04-04T08:50:25Z</time></trkpt><trkpt lat="40.177776625842505" lon="8.962185191927192"><ele>168.0</ele><time>2026-04-04T08:50:27Z</time></trkpt><trkpt lat="40.17768927139015" lon="8.962268922523753"><ele>168.0</ele><time>2026-04-04T08:50:29Z</time></trkpt><trkpt lat="40.17758104283398" lon="8.962297988955388"><ele>168.0</ele><time>2026-04-04T08:50:31Z</time></trkpt><trkpt lat="40.17750537819335" lon="8.962310617742741"><ele>168.0</ele><time>2026-04-04T08:50:32Z</time></trkpt><trkpt lat="40.17743752038933" lon="8.962313659016"><ele>168.0</ele><time>2026-04-04T08:50:33Z</time></trkpt><trkpt lat="40.177373665369785" lon="8.962299363111185"><ele>168.0</ele><time>2026-04-04T08:50:34Z</time></trkpt><trkpt lat="40.17729999718857" lon="8.962300333714715"><ele>170.66666666666666</ele><time>2026-04-04T08:50:35Z</time></trkpt><trkpt lat="40.17723530129946" lon="8.962340118072776"><ele>173.33333333333334</ele><time>2026-04-04T08:50:36Z</time></trkpt><trkpt lat="40.17718635396081" lon="8.962407331362556"><ele>176.0</ele><time>2026-04-04T08:50:37Z</time></trkpt><trkpt lat="40.177137675970044" lon="8.962508576334642"><ele>178.66666666666669</ele><time>2026-04-04T08:50:38Z</time></trkpt><trkpt lat="40.177106547225954" lon="8.962630248988418"><ele>181.33333333333334</ele><time>2026-04-04T08:50:39Z</time></trkpt><trkpt lat="40.17708656766396" lon="8.962757162669124"><ele>184.0</ele><time>2026-04-04T08:50:40Z</time></trkpt><trkpt lat="40.17706303190926" lon="8.962864854525197"><ele>184.2</ele><time>2026-04-04T08:50:41Z</time></trkpt><trkpt lat="40.17703641448851" lon="8.96294733723476"><ele>184.39999999999998</ele><time>2026-04-04T08:50:42Z</time></trkpt><trkpt lat="40.177016225027444" lon="8.963107628726776"><ele>184.6</ele><time>2026-04-04T08:50:44Z</time></trkpt><trkpt lat="40.17695940708256" lon="8.963198030363817"><ele>184.8</ele><time>2026-04-04T08:50:46Z</time></trkpt><trkpt lat="40.17686654568263" lon="8.963238546870036"><ele>185.0</ele><time>2026-04-04T08:50:48Z</time></trkpt><trkpt lat="40.17678327086216" lon="8.963263044592411"><ele>185.0</ele><time>2026-04-04T08:50:50Z</time></trkpt><trkpt lat="40.17670975332017" lon="8.963234778427253"><ele>185.0</ele><time>2026-04-04T08:50:53Z</time></trkpt><trkpt lat="40.17663084000863" lon="8.963248725096983"><ele>185.0</ele><time>2026-04-04T08:51:37Z</time></trkpt><trkpt lat="40.17653527737291" lon="8.96327984628341"><ele>185.0</ele><time>2026-04-04T08:51:40Z</time></trkpt><trkpt lat="40.176457963515176" lon="8.96330876654478"><ele>185.0</ele><time>2026-04-04T08:51:44Z</time></trkpt><trkpt lat="40.176385306052836" lon="8.963322480882686"><ele>185.0</ele><time>2026-04-04T08:52:19Z</time></trkpt><trkpt lat="40.17631298049877" lon="8.963315713001213"><ele>186.85714285714283</ele><time>2026-04-04T08:52:22Z</time></trkpt><trkpt lat="40.1762587730641" lon="8.963268695200538"><ele>188.71428571428572</ele><time>2026-04-04T08:52:24Z</time></trkpt><trkpt lat="40.17620060639391" lon="8.963229887213151"><ele>190.57142857142856</ele><time>2026-04-04T08:52:27Z</time></trkpt><trkpt lat="40.17614275991463" lon="8.96317244303226"><ele>192.42857142857142</ele><time>2026-04-04T08:52:59Z</time></trkpt><trkpt lat="40.17607306491128" lon="8.963108702799056"><ele>194.28571428571428</ele><time>2026-04-04T08:53:55Z</time></trkpt><trkpt lat="40.176002863606534" lon="8.963122048235313"><ele>196.14285714285714</ele><time>2026-04-04T08:53:58Z</time></trkpt><trkpt lat="40.175922998994125" lon="8.963121581217674"><ele>198.0</ele><time>2026-04-04T08:54:01Z</time></trkpt><trkpt lat="40.17584459660929" lon="8.963133218508139"><ele>198.0</ele><time>2026-04-04T08:54:03Z</time></trkpt><trkpt lat="40.17578250198199" lon="8.963106015315867"><ele>198.0</ele><time>2026-04-04T08:55:30Z</time></trkpt><trkpt lat="40.175698574172195" lon="8.963115280236135"><ele>198.0</ele><time>2026-04-04T08:55:34Z</time></trkpt><trkpt lat="40.17562564093685" lon="8.963110241908664"><ele>198.0</ele><time>2026-04-04T08:55:37Z</time></trkpt><trkpt lat="40.175561186966696" lon="8.963107592435135"><ele>198.0</ele><time>2026-04-04T08:55:40Z</time></trkpt><trkpt lat="40.17549178810036" lon="8.963103107795666"><ele>198.0</ele><time>2026-04-04T08:55:45Z</time></trkpt><trkpt lat="40.175430502668625" lon="8.96307155613056"><ele>198.0</ele><time>2026-04-04T08:56:05Z</time></trkpt><trkpt lat="40.175353398157526" lon="8.963052362952194"><ele>200.42857142857144</ele><time>2026-04-04T08:56:18Z</time></trkpt><trkpt lat="40.17528302973063" lon="8.96306399073036"><ele>202.85714285714283</ele><time>2026-04-04T08:56:21Z</time></trkpt><trkpt lat="40.17522207986671" lon="8.963090967171171"><ele>205.28571428571428</ele><time>2026-04-04T08:56:23Z</time></trkpt><trkpt lat="40.175143533726924" lon="8.963065267889316"><ele>207.71428571428572</ele><time>2026-04-04T08:56:27Z</time></trkpt><trkpt lat="40.175081651536" lon="8.963081002135562"><ele>210.14285714285717</ele><time>2026-04-04T08:57:08Z</time></trkpt><trkpt lat="40.17501664980446" lon="8.963067694776699"><ele>212.57142857142856</ele><time>2026-04-04T08:58:21Z</time></trkpt><trkpt lat="40.174943558882255" lon="8.963026020916653"><ele>215.0</ele><time>2026-04-04T08:58:24Z</time></trkpt><trkpt lat="40.17487552962846" lon="8.963077727174637"><ele>215.0</ele><time>2026-04-04T08:58:34Z</time></trkpt><trkpt lat="40.17478551420785" lon="8.963013728439806"><ele>241.0</ele><time>2026-04-04T08:58:37Z</time></trkpt><trkpt lat="40.17474884939962" lon="8.962936667649462"><ele>241.0</ele><time>2026-04-04T08:58:39Z</time></trkpt><trkpt lat="40.17470402913251" lon="8.962841433796498"><ele>241.0</ele><time>2026-04-04T08:58:42Z</time></trkpt><trkpt lat="40.17462766158777" lon="8.962769610904386"><ele>241.0</ele><time>2026-04-04T08:58:45Z</time></trkpt><trkpt lat="40.1745741203799" lon="8.9627066420353"><ele>241.0</ele><time>2026-04-04T08:58:48Z</time></trkpt></trkseg></trk></gpx>